Time;durP1;ratioP1;P1;durP2;ratioP2;P2;SDS_P1;SDS_P2;PMS_P1;PMS_P2;Temp;Humidity;BMP_temperature;BMP_pressure;BME280_temperature;BME280_humidity;BME280_pressure;Samples;Min_cycle;Max_cycle;Signal;HPM_P1;HPM_P2
2023/09/24 00:01:53;;;;;;;;;;;;;;;25.49;68.45;101326.31;5033670;28;19916;-88
2023/09/24 00:04:18;;;;;;;;;;;;;;;25.49;67.82;101329.88;5036800;28;19923;-88
2023/09/24 00:06:45;;;;;;;;;;;;;;;25.46;67.66;101328.97;5020520;28;19979;-89
2023/09/24 00:09:13;;;;;;;;;;;;;;;25.49;67.78;101326.31;5024352;28;20486;-88
2023/09/24 00:11:39;;;;;;;;;;;;;;;25.49;67.83;101319.16;5049442;28;20302;-88
2023/09/24 00:14:04;;;;;;;;;;;;;;;25.48;68.11;101316.47;5026198;28;19917;-88
2023/09/24 00:16:31;;;;;;;;;;;;;;;25.39;68.43;101326.28;5034258;28;19913;-89
2023/09/24 00:18:56;;;;;;;;;;;;;;;25.45;68.11;101314.69;5035141;28;19912;-88
2023/09/24 00:21:22;;;;;;;;;;;;;;;25.47;67.99;101317.38;5016615;28;19920;-88
2023/09/24 00:23:47;;;;;;;;;;;;;;;25.48;67.81;101312.03;5050601;28;19917;-87
2023/09/24 00:26:12;;;;;;;;;;;;;;;25.47;68.21;101310.25;5051401;28;19913;-88
2023/09/24 00:28:38;;;;;;;;;;;;;;;25.43;68.43;101310.25;5032788;28;19917;-86
2023/09/24 00:31:03;;;;;;;;;;;;;;;25.42;68.42;101298.66;5038543;28;19921;-88
2023/09/24 00:33:29;;;;;;;;;;;;;;;25.46;68.37;101296.88;5049125;28;19966;-89
2023/09/24 00:36:01;;;;;;;;;;;;;;;25.45;67.91;101298.66;5017244;28;19917;-88
2023/09/24 00:38:27;;;;;;;;;;;;;;;25.46;68.27;101302.22;5034767;28;19919;-89
2023/09/24 00:40:52;;;;;;;;;;;;;;;25.44;68.12;101288.84;5022605;28;19917;-89
2023/09/24 00:43:26;;;;;;;;;;;;;;;25.44;68.43;101298.66;5039512;28;19923;-89
2023/09/24 00:45:51;;;;;;;;;;;;;;;25.43;67.90;101292.41;5027414;28;20453;-89
2023/09/24 00:48:17;;;;;;;;;;;;;;;25.46;68.68;101296.88;5025877;28;19917;-89
2023/09/24 00:50:42;;;;;;;;;;;;;;;25.42;68.60;101297.75;5032864;28;20394;-88
2023/09/24 00:53:08;;;;;;;;;;;;;;;25.44;68.47;101299.53;5017258;28;19920;-88
2023/09/24 00:55:34;;;;;;;;;;;;;;;25.46;68.22;101299.53;5033615;28;19919;-88
2023/09/24 00:58:00;;;;;;;;;;;;;;;25.44;68.63;101302.22;5032841;28;19992;-89
2023/09/24 01:00:30;;;;;;;;;;;;;;;25.45;68.34;101295.97;5034235;28;20007;-88
2023/09/24 01:02:56;;;;;;;;;;;;;;;25.46;68.60;101302.22;5043936;28;19920;-88
2023/09/24 01:05:22;;;;;;;;;;;;;;;25.45;68.28;101300.44;5034030;28;19920;-88
2023/09/24 01:07:47;;;;;;;;;;;;;;;25.45;68.40;101289.75;5050855;28;19921;-88
2023/09/24 01:10:14;;;;;;;;;;;;;;;25.46;68.35;101291.53;5013526;28;20398;-88
2023/09/24 01:12:40;;;;;;;;;;;;;;;25.44;68.52;101286.16;5024959;28;20355;-89
2023/09/24 01:15:08;;;;;;;;;;;;;;;25.44;68.70;101287.94;5033691;28;19923;-88
2023/09/24 01:17:35;;;;;;;;;;;;;;;25.44;68.33;101291.50;5032281;28;19975;-88
2023/09/24 01:20:01;;;;;;;;;;;;;;;25.38;68.45;101291.53;5048885;28;21900;-88
2023/09/24 01:22:28;;;;;;;;;;;;;;;25.39;68.53;101288.84;5032991;28;19912;-88
2023/09/24 01:24:55;;;;;;;;;;;;;;;25.41;68.31;101287.97;5030409;28;19913;-87
2023/09/24 01:27:22;;;;;;;;;;;;;;;25.38;68.55;101287.06;5030838;28;19912;-88
2023/09/24 01:29:48;;;;;;;;;;;;;;;25.39;68.46;101287.94;5035767;28;20386;-89
2023/09/24 01:32:15;;;;;;;;;;;;;;;25.39;68.59;101288.84;5038463;28;19912;-89
2023/09/24 01:34:40;;;;;;;;;;;;;;;25.41;68.55;101283.50;5016860;28;20353;-89
2023/09/24 01:37:09;;;;;;;;;;;;;;;25.43;68.34;101286.19;5047835;28;19916;-89
2023/09/24 01:39:36;;;;;;;;;;;;;;;25.45;68.32;101284.41;5031777;28;19913;-89
2023/09/24 01:42:02;;;;;;;;;;;;;;;25.42;68.27;101287.97;5032559;28;19971;-89
2023/09/24 01:44:28;;;;;;;;;;;;;;;25.41;67.89;101280.81;5033170;28;20394;-89
2023/09/24 01:46:53;;;;;;;;;;;;;;;25.42;68.22;101285.31;5034783;28;20322;-88
2023/09/24 01:49:20;;;;;;;;;;;;;;;25.42;68.40;101282.63;5038951;28;20406;-88
2023/09/24 01:51:46;;;;;;;;;;;;;;;25.41;68.23;101286.16;5031519;28;20354;-88
2023/09/24 01:54:12;;;;;;;;;;;;;;;25.42;68.15;101290.66;5032279;28;20016;-88
2023/09/24 01:56:37;;;;;;;;;;;;;;;25.42;67.92;101289.72;5036108;28;19920;-87
2023/09/24 01:59:06;;;;;;;;;;;;;;;25.43;68.15;101286.19;5019747;28;19913;-88
2023/09/24 02:01:33;;;;;;;;;;;;;;;25.42;68.44;101296.00;5018564;28;19924;-89
2023/09/24 02:03:59;;;;;;;;;;;;;;;25.41;69.16;101286.16;5034908;28;19913;-88
2023/09/24 02:06:25;;;;;;;;;;;;;;;25.41;68.59;101286.16;5027523;28;19920;-88
2023/09/24 02:08:50;;;;;;;;;;;;;;;25.41;68.63;101291.53;5001255;28;19929;-89
2023/09/24 02:11:16;;;;;;;;;;;;;;;25.37;69.12;101295.06;5009606;28;19932;-88
2023/09/24 02:13:42;;;;;;;;;;;;;;;25.38;68.85;101299.56;5032861;28;20393;-88
2023/09/24 02:16:08;;;;;;;;;;;;;;;25.38;68.67;101299.56;5016009;28;20004;-88
2023/09/24 02:18:37;;;;;;;;;;;;;;;25.35;68.50;101288.84;5016230;28;19913;-88
2023/09/24 02:21:03;;;;;;;;;;;;;;;25.29;68.71;101289.72;5031757;28;19917;-89
2023/09/24 02:23:29;;;;;;;;;;;;;;;25.29;68.54;101294.16;5032101;28;19920;-89
2023/09/24 02:25:56;;;;;;;;;;;;;;;25.29;68.79;101289.72;5030999;28;20015;-90
2023/09/24 02:28:24;;;;;;;;;;;;;;;25.29;68.91;101294.16;5032121;28;20004;-88
2023/09/24 02:30:49;;;;;;;;;;;;;;;25.27;68.78;101291.47;5002715;28;19921;-89
2023/09/24 02:33:15;;;;;;;;;;;;;;;25.29;68.70;101292.38;5033899;28;19984;-88
2023/09/24 02:35:40;;;;;;;;;;;;;;;25.27;68.45;101293.28;5013908;28;19968;-88
2023/09/24 02:38:07;;;;;;;;;;;;;;;25.26;68.62;101294.19;5032945;28;19928;-89
2023/09/24 02:40:32;;;;;;;;;;;;;;;25.25;68.29;101300.41;5029727;28;20299;-89
2023/09/24 02:42:58;;;;;;;;;;;;;;;25.27;68.45;101296.84;4996111;28;19917;-88
2023/09/24 02:45:24;;;;;;;;;;;;;;;25.25;68.35;101305.75;5030642;28;19921;-88
2023/09/24 02:47:50;;;;;;;;;;;;;;;25.26;68.49;101304.88;5015143;28;19924;-89
2023/09/24 02:50:16;;;;;;;;;;;;;;;25.25;68.30;101306.66;5031627;28;20330;-88
2023/09/24 02:52:44;;;;;;;;;;;;;;;25.24;68.21;101309.31;5028855;28;20007;-89
2023/09/24 02:55:10;;;;;;;;;;;;;;;25.24;68.16;101304.88;5029388;28;20430;-87
2023/09/24 02:57:39;;;;;;;;;;;;;;;25.24;67.84;101294.16;5014990;28;20072;-88
2023/09/24 03:00:10;;;;;;;;;;;;;;;25.25;67.95;101295.06;5028756;28;20284;-88
2023/09/24 03:02:38;;;;;;;;;;;;;;;25.24;68.29;101293.28;5010002;28;20304;-89
2023/09/24 03:05:05;;;;;;;;;;;;;;;25.23;68.10;101295.06;5026987;28;19933;-88
2023/09/24 03:07:31;;;;;;;;;;;;;;;25.25;67.49;101293.28;5023421;28;20138;-89
2023/09/24 03:09:56;;;;;;;;;;;;;;;25.23;67.19;101288.81;5024512;28;20398;-88
2023/09/24 03:12:22;;;;;;;;;;;;;;;25.24;67.84;101293.28;5037469;28;19924;-88
2023/09/24 03:14:47;;;;;;;;;;;;;;;25.23;67.71;101305.75;5007339;28;19952;-88
2023/09/24 03:17:13;;;;;;;;;;;;;;;25.21;67.95;101295.94;5028831;28;19925;-88
2023/09/24 03:19:38;;;;;;;;;;;;;;;25.23;67.74;101289.72;5028008;28;19923;-88
2023/09/24 03:22:03;;;;;;;;;;;;;;;25.23;67.79;101296.81;5014813;28;20000;-89
2023/09/24 03:24:29;;;;;;;;;;;;;;;25.21;68.06;101290.59;5014422;28;19952;-89
2023/09/24 03:26:54;;;;;;;;;;;;;;;25.19;68.08;101298.59;5031121;28;19921;-89
2023/09/24 03:29:20;;;;;;;;;;;;;;;25.21;67.75;101302.19;4994794;28;19968;-89
2023/09/24 03:31:45;;;;;;;;;;;;;;;25.19;67.70;101298.59;5009822;28;19932;-89
2023/09/24 03:34:10;;;;;;;;;;;;;;;25.19;67.80;101302.16;5008606;28;19917;-88
2023/09/24 03:36:37;;;;;;;;;;;;;;;25.19;67.47;101307.50;4997581;28;19921;-89
2023/09/24 03:39:03;;;;;;;;;;;;;;;25.15;67.51;101313.72;5013277;28;20004;-89
2023/09/24 03:41:28;;;;;;;;;;;;;;;25.17;67.63;101317.28;5010482;28;19960;-88
2023/09/24 03:43:54;;;;;;;;;;;;;;;25.18;67.67;101318.19;5025334;28;19948;-89
2023/09/24 03:46:19;;;;;;;;;;;;;;;25.18;67.75;101310.16;4992682;28;19991;-89
2023/09/24 03:48:45;;;;;;;;;;;;;;;25.18;67.79;101320.84;4986477;28;19926;-88
2023/09/24 03:51:10;;;;;;;;;;;;;;;25.19;67.66;101320.88;5000881;28;19922;-89
2023/09/24 03:53:36;;;;;;;;;;;;;;;25.18;67.59;101334.22;5027563;28;19921;-89
2023/09/24 03:56:05;;;;;;;;;;;;;;;25.17;67.97;101327.09;5013095;28;19917;-92
2023/09/24 03:58:31;;;;;;;;;;;;;;;25.18;67.71;101328.88;5024347;28;20429;-87
2023/09/24 04:00:56;;;;;;;;;;;;;;;25.17;67.68;101325.31;5025288;28;19952;-88
2023/09/24 04:03:23;;;;;;;;;;;;;;;25.17;67.46;101325.31;5026901;28;19967;-88
2023/09/24 04:05:48;;;;;;;;;;;;;;;25.14;67.54;101319.06;5023646;28;19992;-87
2023/09/24 04:08:13;;;;;;;;;;;;;;;25.09;68.05;101321.72;5046683;28;20023;-87
2023/09/24 04:10:39;;;;;;;;;;;;;;;25.11;67.47;101324.41;5025647;28;19971;-88
2023/09/24 04:13:04;;;;;;;;;;;;;;;25.10;67.87;101319.94;5047809;28;19917;-89
2023/09/24 04:15:31;;;;;;;;;;;;;;;25.08;67.63;101324.38;5046219;28;19942;-89
2023/09/24 04:17:59;;;;;;;;;;;;;;;25.08;67.70;101327.97;5044043;28;20309;-88
2023/09/24 04:20:29;;;;;;;;;;;;;;;25.08;67.96;101325.28;5029576;28;20071;-89
2023/09/24 04:22:54;;;;;;;;;;;;;;;25.10;67.90;101325.28;5044037;28;19917;-88
2023/09/24 04:25:24;;;;;;;;;;;;;;;25.14;67.81;101329.75;5046776;28;19983;-86
2023/09/24 04:27:49;;;;;;;;;;;;;;;25.14;67.38;101330.63;5051741;28;19912;-89
2023/09/24 04:30:18;;;;;;;;;;;;;;;25.14;67.75;101335.09;5031606;28;19943;-89
2023/09/24 04:32:47;;;;;;;;;;;;;;;25.14;67.63;101343.09;5021030;28;19919;-88
2023/09/24 04:35:13;;;;;;;;;;;;;;;25.18;67.61;101339.56;5029577;28;20279;-89
2023/09/24 04:37:39;;;;;;;;;;;;;;;25.14;67.24;101332.41;5013917;28;20416;-89
2023/09/24 04:40:10;;;;;;;;;;;;;;;25.16;67.10;101336.88;5028436;28;19917;-88
2023/09/24 04:42:37;;;;;;;;;;;;;;;25.17;67.15;101341.34;5025147;28;19972;-88
2023/09/24 04:45:03;;;;;;;;;;;;;;;25.14;67.20;101344.00;5049096;28;19916;-89
2023/09/24 04:47:29;;;;;;;;;;;;;;;25.14;67.18;101349.34;5051374;28;19913;-89
2023/09/24 04:49:55;;;;;;;;;;;;;;;25.15;67.26;101350.25;5025926;28;19928;-89
2023/09/24 04:52:21;;;;;;;;;;;;;;;25.14;67.28;101356.47;5042657;28;19913;-88
2023/09/24 04:54:46;;;;;;;;;;;;;;;25.13;67.52;101355.59;5033018;28;19912;-88
2023/09/24 04:57:11;;;;;;;;;;;;;;;25.12;67.12;101352.91;5050531;28;19917;-88
2023/09/24 04:59:38;;;;;;;;;;;;;;;25.16;67.55;101352.91;5042878;28;19924;-88
2023/09/24 05:02:03;;;;;;;;;;;;;;;25.13;67.52;101350.25;5031907;28;19916;-86
2023/09/24 05:04:28;;;;;;;;;;;;;;;25.13;66.85;101350.25;5033283;28;20398;-87
2023/09/24 05:06:54;;;;;;;;;;;;;;;25.11;67.15;101345.78;5016741;28;19979;-87
2023/09/24 05:09:20;;;;;;;;;;;;;;;25.10;67.18;101360.03;5049261;28;19974;-88
2023/09/24 05:11:46;;;;;;;;;;;;;;;25.13;67.34;101360.94;5025626;28;19932;-86
2023/09/24 05:14:13;;;;;;;;;;;;;;;25.12;66.93;101360.91;5028003;28;19917;-88
2023/09/24 05:16:39;;;;;;;;;;;;;;;25.12;67.45;101364.47;5050414;28;19913;-89
2023/09/24 05:19:07;;;;;;;;;;;;;;;25.12;67.33;101359.13;5033069;28;19940;-89
2023/09/24 05:21:33;;;;;;;;;;;;;;;25.10;67.00;101357.34;5033384;28;19971;-90
2023/09/24 05:24:00;;;;;;;;;;;;;;;25.10;67.25;101357.34;5030618;28;19924;-90
2023/09/24 05:26:26;;;;;;;;;;;;;;;25.10;67.40;101363.56;5017962;28;19921;-92
2023/09/24 05:28:52;;;;;;;;;;;;;;;25.11;67.19;101370.72;5051175;28;19916;-89
2023/09/24 05:31:17;;;;;;;;;;;;;;;25.11;67.14;101373.41;5023887;28;19977;-90
2023/09/24 05:33:44;;;;;;;;;;;;;;;25.13;67.34;101379.66;5054457;28;19912;-89
2023/09/24 05:36:10;;;;;;;;;;;;;;;25.11;67.11;101386.75;5024521;28;20294;-90
2023/09/24 05:38:36;;;;;;;;;;;;;;;25.10;67.00;101384.97;5035451;28;19944;-88
2023/09/24 05:41:01;;;;;;;;;;;;;;;25.12;67.28;101395.66;5029812;28;19955;-87
2023/09/24 05:43:27;;;;;;;;;;;;;;;25.12;67.33;101387.66;5033694;28;20370;-88
2023/09/24 05:45:53;;;;;;;;;;;;;;;25.12;67.07;101383.19;5035708;28;20354;-88
2023/09/24 05:48:19;;;;;;;;;;;;;;;25.10;67.45;101382.28;5031750;28;19917;-88
2023/09/24 05:50:44;;;;;;;;;;;;;;;25.12;67.34;101395.66;5030070;28;20499;-88
2023/09/24 05:53:10;;;;;;;;;;;;;;;25.11;67.78;101402.78;5034544;28;19924;-87
2023/09/24 05:55:36;;;;;;;;;;;;;;;25.09;68.13;101403.69;5051378;28;19927;-86
2023/09/24 05:58:03;;;;;;;;;;;;;;;25.11;68.02;101405.47;5029287;28;19917;-88
2023/09/24 06:00:29;;;;;;;;;;;;;;;25.12;67.61;101404.56;5047605;28;20309;-86
2023/09/24 06:02:55;;;;;;;;;;;;;;;25.15;67.86;101403.72;5015074;28;19928;-87
2023/09/24 06:05:20;;;;;;;;;;;;;;;25.15;68.04;101399.25;5032364;28;20011;-88
2023/09/24 06:07:45;;;;;;;;;;;;;;;25.12;67.45;101401.00;5027825;28;20402;-87
2023/09/24 06:10:11;;;;;;;;;;;;;;;25.17;67.61;101402.81;5029583;28;19925;-88
2023/09/24 06:12:36;;;;;;;;;;;;;;;25.17;67.40;101405.50;5032182;28;19916;-88
2023/09/24 06:15:03;;;;;;;;;;;;;;;25.17;67.96;101396.59;5031691;28;19917;-88
2023/09/24 06:17:29;;;;;;;;;;;;;;;25.18;68.08;101403.72;5011295;28;19974;-89
2023/09/24 06:19:55;;;;;;;;;;;;;;;25.17;68.22;101399.28;5012074;28;20007;-87
2023/09/24 06:22:22;;;;;;;;;;;;;;;25.18;68.03;101409.06;5014796;28;19921;-88
2023/09/24 06:24:50;;;;;;;;;;;;;;;25.18;68.00;101404.59;5033192;28;19924;-88
2023/09/24 06:27:16;;;;;;;;;;;;;;;25.20;68.32;101415.34;5029437;28;20552;-89
2023/09/24 06:29:42;;;;;;;;;;;;;;;25.21;68.43;101410.88;5024597;28;19960;-86
2023/09/24 06:32:07;;;;;;;;;;;;;;;25.22;67.94;101410.00;5032749;28;19961;-85
2023/09/24 06:34:38;;;;;;;;;;;;;;;25.20;68.44;101410.00;5031577;28;19967;-93
2023/09/24 06:37:03;;;;;;;;;;;;;;;25.22;68.30;101410.00;5052387;28;20382;-90
2023/09/24 06:39:35;;;;;;;;;;;;;;;25.19;68.63;101419.75;5013647;28;19921;-94
2023/09/24 06:42:00;;;;;;;;;;;;;;;25.21;68.67;101429.59;5040553;28;19917;-90
2023/09/24 06:44:26;;;;;;;;;;;;;;;25.19;68.71;101421.56;5029000;28;19921;-90
2023/09/24 06:46:55;;;;;;;;;;;;;;;25.22;68.41;101423.38;5051486;28;19928;-91
2023/09/24 06:49:23;;;;;;;;;;;;;;;25.19;68.69;101419.75;5021002;28;19952;-90
2023/09/24 06:51:55;;;;;;;;;;;;;;;25.21;68.65;101416.22;5042878;28;19955;-91
2023/09/24 06:54:21;;;;;;;;;;;;;;;25.21;68.16;101425.16;5019399;28;19923;-89
2023/09/24 06:56:48;;;;;;;;;;;;;;;25.22;68.41;101424.25;5021093;28;19917;-90
2023/09/24 06:59:13;;;;;;;;;;;;;;;25.22;68.17;101432.28;5042244;28;19917;-88
2023/09/24 07:01:39;;;;;;;;;;;;;;;25.23;68.54;101433.16;5039784;28;19939;-91
2023/09/24 07:04:05;;;;;;;;;;;;;;;25.21;68.79;101433.19;5029954;28;19924;-91
2023/09/24 07:06:31;;;;;;;;;;;;;;;25.22;68.86;101434.06;5038907;28;19924;-90
2023/09/24 07:09:01;;;;;;;;;;;;;;;25.22;69.22;101444.75;5003842;28;19924;-90
2023/09/24 07:11:31;;;;;;;;;;;;;;;25.24;68.64;101434.97;5032403;28;20019;-90
2023/09/24 07:13:59;;;;;;;;;;;;;;;25.24;68.42;101435.84;5033151;28;19921;-91
2023/09/24 07:16:26;;;;;;;;;;;;;;;25.22;68.92;101424.25;5017918;28;19974;-91
2023/09/24 07:18:54;;;;;;;;;;;;;;;25.22;68.92;101424.25;5018366;28;19924;-90
2023/09/24 07:21:24;;;;;;;;;;;;;;;25.23;68.92;101436.75;5032570;28;19925;-86
2023/09/24 07:23:53;;;;;;;;;;;;;;;25.22;68.63;101436.75;5016239;28;20440;-87
2023/09/24 07:26:19;;;;;;;;;;;;;;;25.25;68.70;101439.41;5041882;28;19920;-89
2023/09/24 07:28:45;;;;;;;;;;;;;;;25.26;68.53;101442.09;5051309;28;19970;-90
2023/09/24 07:31:21;;;;;;;;;;;;;;;25.29;68.11;101442.09;5028806;28;19964;-89
2023/09/24 07:33:58;;;;;;;;;;;;;;;25.27;67.85;101438.53;5041860;28;19928;-90
2023/09/24 07:36:23;;;;;;;;;;;;;;;25.24;68.06;101443.88;5015684;28;19924;-88
2023/09/24 07:38:50;;;;;;;;;;;;;;;25.26;67.83;101444.78;5035677;28;19939;-90
2023/09/24 07:41:18;;;;;;;;;;;;;;;25.26;68.09;101449.22;5048525;28;19924;-90
2023/09/24 07:43:44;;;;;;;;;;;;;;;25.23;68.34;101446.53;5033963;28;19921;-91
2023/09/24 07:46:14;;;;;;;;;;;;;;;25.24;67.90;101440.31;5020293;28;19924;-92
2023/09/24 07:48:40;;;;;;;;;;;;;;;25.23;68.11;101442.09;5056342;28;19920;-90
2023/09/24 07:51:08;;;;;;;;;;;;;;;25.23;68.35;101442.09;5022446;28;20002;-93
2023/09/24 07:53:33;;;;;;;;;;;;;;;25.21;67.76;101435.84;5016672;28;19917;-89
2023/09/24 07:56:02;;;;;;;;;;;;;;;25.23;68.00;101441.19;5040109;28;20011;-91
2023/09/24 07:58:30;;;;;;;;;;;;;;;25.24;67.99;101437.63;5031189;28;19917;-91
2023/09/24 08:01:07;;;;;;;;;;;;;;;25.24;68.08;101445.66;5032169;28;19921;-92
2023/09/24 08:03:34;;;;;;;;;;;;;;;25.22;68.16;101434.94;5024380;28;19916;-90
2023/09/24 08:06:00;;;;;;;;;;;;;;;25.22;67.99;101448.31;5031020;28;20372;-90
2023/09/24 08:08:26;;;;;;;;;;;;;;;25.24;68.06;101442.97;5028285;28;19988;-89
2023/09/24 08:10:51;;;;;;;;;;;;;;;25.25;68.22;101444.75;5035153;28;19921;-90
2023/09/24 08:13:20;;;;;;;;;;;;;;;25.22;67.76;101440.28;5023358;28;19956;-88
2023/09/24 08:15:49;;;;;;;;;;;;;;;25.24;67.95;101429.63;5030348;28;19940;-86
2023/09/24 08:18:16;;;;;;;;;;;;;;;25.26;67.94;101433.19;5030791;28;19917;-86
2023/09/24 08:20:41;;;;;;;;;;;;;;;25.22;68.05;101434.94;5028125;28;19916;-87
2023/09/24 08:23:07;;;;;;;;;;;;;;;25.21;68.02;101437.59;5028592;28;19924;-88
2023/09/24 08:25:33;;;;;;;;;;;;;;;25.18;68.13;101435.78;5029883;28;19916;-87
2023/09/24 08:27:58;;;;;;;;;;;;;;;25.22;67.78;101439.41;5011491;28;19916;-88
2023/09/24 08:30:24;;;;;;;;;;;;;;;25.19;67.98;101432.25;5023983;28;19975;-89
2023/09/24 08:32:53;;;;;;;;;;;;;;;25.19;68.24;101437.59;5026921;28;19921;-90
2023/09/24 08:35:18;;;;;;;;;;;;;;;25.17;67.62;101437.56;5033726;28;19924;-88
2023/09/24 08:37:44;;;;;;;;;;;;;;;25.16;67.70;101446.47;5027951;28;19917;-87
2023/09/24 08:40:11;;;;;;;;;;;;;;;25.09;67.50;101449.13;5031403;28;19975;-86
2023/09/24 08:42:37;;;;;;;;;;;;;;;25.05;68.33;101440.19;5023491;28;19917;-88
2023/09/24 08:45:05;;;;;;;;;;;;;;;25.03;68.04;101451.75;5002002;28;19966;-89
2023/09/24 08:47:31;;;;;;;;;;;;;;;25.00;68.32;101452.63;5049696;28;19990;-86
2023/09/24 08:49:56;;;;;;;;;;;;;;;24.99;67.83;101450.84;5032213;28;20381;-87
2023/09/24 08:52:22;;;;;;;;;;;;;;;24.97;68.23;101449.94;5039483;28;20014;-87
2023/09/24 08:54:47;;;;;;;;;;;;;;;25.03;68.55;101451.75;5032584;28;19921;-85
2023/09/24 08:57:12;;;;;;;;;;;;;;;24.95;67.91;101449.03;5026441;28;19913;-88
2023/09/24 08:59:38;;;;;;;;;;;;;;;25.00;68.54;101452.63;5028140;28;19912;-87
2023/09/24 09:02:03;;;;;;;;;;;;;;;24.99;67.66;101448.16;5044403;28;19913;-88
2023/09/24 09:04:29;;;;;;;;;;;;;;;24.96;67.57;101445.50;5050015;28;19912;-88
2023/09/24 09:06:57;;;;;;;;;;;;;;;24.94;67.94;101450.81;5044692;28;19975;-88
2023/09/24 09:09:24;;;;;;;;;;;;;;;25.06;67.43;101449.09;5019442;28;19935;-88
2023/09/24 09:11:50;;;;;;;;;;;;;;;25.08;67.11;101453.59;5040140;28;19927;-88
2023/09/24 09:14:15;;;;;;;;;;;;;;;25.08;67.46;101455.34;5038788;28;20011;-88
2023/09/24 09:16:56;;;;;;;;;;;;;;;25.07;67.36;101451.78;5031276;28;19916;-88
2023/09/24 09:19:22;;;;;;;;;;;;;;;25.03;67.36;101463.34;5047765;28;20420;-89
2023/09/24 09:21:47;;;;;;;;;;;;;;;25.07;67.39;101464.25;5050024;28;19912;-89
2023/09/24 09:24:21;;;;;;;;;;;;;;;25.07;67.43;101461.56;5036846;28;19920;-89
2023/09/24 09:26:47;;;;;;;;;;;;;;;25.09;67.36;101459.81;5031503;28;19924;-89
2023/09/24 09:29:22;;;;;;;;;;;;;;;25.07;67.47;101457.13;5017596;28;19916;-88
2023/09/24 09:31:49;;;;;;;;;;;;;;;25.10;67.06;101451.78;5054992;28;19927;-89
2023/09/24 09:34:14;;;;;;;;;;;;;;;25.10;67.37;101453.56;5039851;28;19921;-89
2023/09/24 09:36:42;;;;;;;;;;;;;;;25.11;67.64;101452.69;5057136;28;19932;-89
2023/09/24 09:39:08;;;;;;;;;;;;;;;25.07;67.22;101454.44;5038076;28;20015;-89
2023/09/24 09:41:34;;;;;;;;;;;;;;;25.11;67.08;101452.69;5036712;28;20380;-89
2023/09/24 09:44:07;;;;;;;;;;;;;;;25.10;67.47;101451.78;5036592;28;19913;-88
2023/09/24 09:46:39;;;;;;;;;;;;;;;25.11;67.19;101447.34;5046601;28;19921;-89
2023/09/24 09:49:11;;;;;;;;;;;;;;;25.15;67.28;101450.03;5020262;28;19912;-90
2023/09/24 09:51:38;;;;;;;;;;;;;;;25.10;67.85;101446.44;5012838;28;19929;-87
2023/09/24 09:54:07;;;;;;;;;;;;;;;25.12;67.12;101452.69;5014168;28;19917;-89
2023/09/24 09:56:35;;;;;;;;;;;;;;;25.13;67.09;101446.47;5035192;28;19917;-89
2023/09/24 09:59:01;;;;;;;;;;;;;;;25.13;67.46;101450.91;5018823;28;19920;-89
2023/09/24 10:01:26;;;;;;;;;;;;;;;25.11;67.39;101448.22;5051241;28;19917;-89
2023/09/24 10:03:52;;;;;;;;;;;;;;;25.12;67.25;101450.00;5029888;28;20005;-89
2023/09/24 10:06:17;;;;;;;;;;;;;;;25.13;67.37;101446.47;5025149;28;20000;-88
2023/09/24 10:08:43;;;;;;;;;;;;;;;25.10;67.41;101454.44;5030835;28;19921;-88
2023/09/24 10:11:10;;;;;;;;;;;;;;;25.12;66.92;101444.66;5012776;28;19923;-89
2023/09/24 10:13:44;;;;;;;;;;;;;;;25.12;66.97;101441.97;5035996;28;19913;-90
2023/09/24 10:16:44;;;;;;;;;;;;;;;25.11;67.80;101445.56;5054257;28;19912;-88
2023/09/24 10:19:11;;;;;;;;;;;;;;;25.12;67.43;101436.63;5018746;28;19952;-90
2023/09/24 10:21:36;;;;;;;;;;;;;;;25.14;67.90;101433.97;5035403;28;19916;-89
2023/09/24 10:24:14;;;;;;;;;;;;;;;25.12;67.19;101427.75;5052368;28;19912;-90
2023/09/24 10:26:45;;;;;;;;;;;;;;;25.08;67.26;101426.84;5034366;28;19920;-88
2023/09/24 10:29:11;;;;;;;;;;;;;;;25.11;67.45;101431.31;5032625;28;19913;-88
2023/09/24 10:31:59;;;;;;;;;;;;;;;25.13;67.16;101432.22;5025086;28;19989;-88
2023/09/24 10:34:25;;;;;;;;;;;;;;;25.15;67.33;101435.78;5034690;28;19964;-88
2023/09/24 10:37:08;;;;;;;;;;;;;;;25.15;66.94;101434.00;5035402;28;20531;-88
2023/09/24 10:39:34;;;;;;;;;;;;;;;25.13;67.38;101433.09;5022463;28;20652;-88
2023/09/24 10:42:08;;;;;;;;;;;;;;;25.13;67.46;101427.75;5019015;28;19913;-88
2023/09/24 10:44:35;;;;;;;;;;;;;;;25.16;67.02;101425.06;5044204;28;19912;-89
2023/09/24 10:47:20;;;;;;;;;;;;;;;25.17;66.70;101426.88;5033636;28;19920;-90
2023/09/24 10:49:46;;;;;;;;;;;;;;;25.18;66.86;101425.97;5034380;28;20386;-89
2023/09/24 10:52:11;;;;;;;;;;;;;;;25.16;67.29;101424.19;5042796;28;19921;-89
2023/09/24 10:54:37;;;;;;;;;;;;;;;25.14;67.07;101420.63;5044795;28;19916;-89
2023/09/24 10:57:02;;;;;;;;;;;;;;;25.13;67.20;101416.19;5019259;28;20298;-90
2023/09/24 10:59:33;;;;;;;;;;;;;;;25.15;67.04;101412.63;5017968;28;19917;-88
2023/09/24 11:01:58;;;;;;;;;;;;;;;25.16;67.57;101416.16;5014896;28;19993;-88
2023/09/24 11:04:25;;;;;;;;;;;;;;;25.19;67.31;101417.09;5031499;28;20019;-88
2023/09/24 11:06:50;;;;;;;;;;;;;;;25.21;66.65;101418.91;5026867;28;20521;-88
2023/09/24 11:09:16;;;;;;;;;;;;;;;25.21;66.97;101417.13;4993485;28;20031;-88
2023/09/24 11:11:42;;;;;;;;;;;;;;;25.18;67.03;101414.41;4990331;28;20415;-88
2023/09/24 11:14:22;;;;;;;;;;;;;;;25.23;66.87;101417.13;5008416;28;19913;-88
2023/09/24 11:16:53;;;;;;;;;;;;;;;25.23;66.89;101418.03;4990840;28;19913;-88
2023/09/24 11:19:37;;;;;;;;;;;;;;;25.23;67.01;101426.06;5007900;28;19923;-87
2023/09/24 11:22:19;;;;;;;;;;;;;;;25.23;67.11;101418.03;5020392;28;19920;-87
2023/09/24 11:24:52;;;;;;;;;;;;;;;25.25;67.12;101413.59;5030185;28;19917;-88
2023/09/24 11:27:18;;;;;;;;;;;;;;;25.23;66.81;101412.69;5022121;28;19917;-87
2023/09/24 11:29:57;;;;;;;;;;;;;;;25.28;66.58;101413.59;5008289;28;19920;-87
2023/09/24 11:32:23;;;;;;;;;;;;;;;25.33;66.80;101403.78;5002729;28;19945;-88
2023/09/24 11:34:49;;;;;;;;;;;;;;;25.36;67.11;101409.16;5027315;28;20339;-89
2023/09/24 11:37:15;;;;;;;;;;;;;;;25.37;67.11;101408.25;5000519;28;19970;-88
2023/09/24 11:39:44;;;;;;;;;;;;;;;25.41;67.15;101408.28;5009036;28;19925;-88
2023/09/24 11:42:16;;;;;;;;;;;;;;;25.44;67.04;101410.97;5004952;28;19917;-88
2023/09/24 11:44:48;;;;;;;;;;;;;;;25.47;66.87;101417.22;5009896;28;19918;-88
2023/09/24 11:47:23;;;;;;;;;;;;;;;25.51;66.44;101423.47;5022129;27;2675572;-86
2023/09/24 11:49:49;;;;;;;;;;;;;;;25.48;67.13;101424.34;5076795;28;20529;-87
2023/09/24 11:52:14;;;;;;;;;;;;;;;25.51;66.34;101420.81;5100761;28;19931;-87
2023/09/24 11:54:40;;;;;;;;;;;;;;;25.53;66.30;101417.25;5069595;28;19921;-87
2023/09/24 11:57:08;;;;;;;;;;;;;;;25.55;66.94;101422.59;5085682;28;19920;-86
2023/09/24 11:59:34;;;;;;;;;;;;;;;25.54;66.89;101420.78;5076900;28;19927;-87
2023/09/24 12:01:59;;;;;;;;;;;;;;;25.53;67.06;101419.91;5068662;28;19920;-88
2023/09/24 12:04:24;;;;;;;;;;;;;;;25.56;67.29;101413.66;5088532;28;19984;-89
2023/09/24 12:06:50;;;;;;;;;;;;;;;25.58;67.32;101412.78;5089636;28;19920;-88
2023/09/24 12:09:16;;;;;;;;;;;;;;;25.60;66.39;101424.38;5071594;28;19923;-88
2023/09/24 12:11:41;;;;;;;;;;;;;;;25.59;67.33;101416.38;5071681;28;19920;-88
2023/09/24 12:14:06;;;;;;;;;;;;;;;25.56;67.24;101421.69;5069844;28;19921;-88
2023/09/24 12:16:32;;;;;;;;;;;;;;;25.61;66.50;101422.59;5075072;28;19924;-88
2023/09/24 12:18:59;;;;;;;;;;;;;;;25.62;67.17;101427.06;5065592;28;19920;-86
2023/09/24 12:21:24;;;;;;;;;;;;;;;25.67;66.90;101422.59;5106841;28;20301;-87
2023/09/24 12:23:50;;;;;;;;;;;;;;;25.62;67.18;101427.06;5093934;28;19920;-89
2023/09/24 12:26:17;;;;;;;;;;;;;;;25.66;66.78;101431.53;5093223;28;19963;-88
2023/09/24 12:28:43;;;;;;;;;;;;;;;25.55;66.51;101410.09;5086220;28;19974;-88
2023/09/24 12:31:09;;;;;;;;;;;;;;;25.68;66.50;101420.84;5072542;28;19960;-88
2023/09/24 12:33:35;;;;;;;;;;;;;;;25.72;66.35;101425.31;5068275;28;19966;-87
2023/09/24 12:36:00;;;;;;;;;;;;;;;25.72;66.53;101425.31;5069961;28;19920;-87